createdAt,value
2022-08-01T00:01:14.069Z,99653.06
2022-08-01T00:06:05.961Z,99649.88
2022-08-01T00:11:01.363Z,99643.72
2022-08-01T00:15:54.536Z,99653.88
2022-08-01T00:20:46.496Z,99647.47
2022-08-01T00:25:38.162Z,99651.38
2022-08-01T00:30:29.873Z,99660.50
2022-08-01T00:35:21.534Z,99652.47
2022-08-01T00:40:13.345Z,99653.88
2022-08-01T00:45:05.716Z,99665.47
2022-08-01T00:49:57.597Z,99664.25
2022-08-01T00:54:49.367Z,99665.78
2022-08-01T00:59:41.813Z,99667.56
2022-08-01T01:04:33.954Z,99663.06
2022-08-01T01:09:31.483Z,99668.13
2022-08-01T01:14:34.571Z,99667.06
2022-08-01T01:19:31.281Z,99652.47
2022-08-01T01:24:53.499Z,99648.34
2022-08-01T01:30:00.404Z,99639.47
2022-08-01T01:34:55.370Z,99646.88
2022-08-01T01:39:54.094Z,99634.44
2022-08-01T01:44:47.582Z,99632.88
2022-08-01T01:49:42.302Z,99630.03
2022-08-01T01:54:41.818Z,99635.94
2022-08-01T01:59:37.501Z,99638.66
2022-08-01T02:04:30.107Z,99644.53
2022-08-01T02:09:24.265Z,99640.16
2022-08-01T02:14:17.928Z,99638.13
2022-08-01T02:19:11.242Z,99633.38
2022-08-01T02:24:10.762Z,99642.59
2022-08-01T02:29:07.950Z,99638.44
2022-08-01T02:34:10.437Z,99631.56
2022-08-01T02:39:08.691Z,99632.66
2022-08-01T02:44:04.556Z,99631.81
2022-08-01T02:48:59.592Z,99638.56
2022-08-01T02:53:54.724Z,99634.38
2022-08-01T02:58:48.193Z,99638.34
2022-08-01T03:03:42.088Z,99630.66
2022-08-01T03:08:36.042Z,99612.53
2022-08-01T03:13:29.742Z,99621.78
2022-08-01T03:18:25.249Z,99618.66
2022-08-01T03:23:18.355Z,99610.97
2022-08-01T03:28:14.520Z,99612.28
2022-08-01T03:33:06.495Z,99611.06
2022-08-01T03:38:15.737Z,99616.34
2022-08-01T03:43:18.198Z,99618.69
2022-08-01T03:48:14.615Z,99610.16
2022-08-01T03:53:10.756Z,99618.16
2022-08-01T03:58:09.566Z,99613.78
2022-08-01T04:03:01.781Z,99616.94
2022-08-01T04:07:57.002Z,99607.97
2022-08-01T04:12:48.720Z,99615.28
2022-08-01T04:17:40.588Z,99609.47
2022-08-01T04:22:32.230Z,99613.47
2022-08-01T04:27:51.192Z,99613.47
2022-08-01T04:32:46.187Z,99599.28
2022-08-01T04:37:39.997Z,99596.59
2022-08-01T04:42:33.585Z,99596.00
2022-08-01T04:47:27.228Z,99582.00
2022-08-01T04:52:24.857Z,99588.88
2022-08-01T04:57:16.694Z,99590.78
2022-08-01T05:02:10.578Z,99598.47
2022-08-01T05:07:02.685Z,99608.66
2022-08-01T05:11:54.531Z,99609.03
2022-08-01T05:16:46.817Z,99609.16
2022-08-01T05:21:38.710Z,99605.31
2022-08-01T05:26:30.394Z,99601.47
2022-08-01T05:31:23.667Z,99604.72
2022-08-01T05:36:15.446Z,99596.47
2022-08-01T05:41:07.140Z,99600.25
2022-08-01T05:45:59.568Z,99593.56
2022-08-01T05:50:58.013Z,99602.84
2022-08-01T05:55:50.133Z,99599.31
2022-08-01T06:00:41.753Z,99617.47
2022-08-01T06:05:33.405Z,99621.53
2022-08-01T06:10:25.276Z,99619.66
2022-08-01T06:15:16.937Z,99632.09
2022-08-01T06:20:09.540Z,99630.81
2022-08-01T06:25:01.178Z,99626.84
2022-08-01T06:29:55.909Z,99637.47
2022-08-01T06:34:47.581Z,99634.72
2022-08-01T06:39:39.241Z,99640.59
2022-08-01T06:44:30.842Z,99635.03
2022-08-01T06:49:22.567Z,99642.22
2022-08-01T06:54:14.267Z,99641.25
2022-08-01T06:59:05.889Z,99647.38
2022-08-01T07:03:57.701Z,99633.50
2022-08-01T07:08:49.331Z,99627.34
2022-08-01T07:13:44.027Z,99619.97
2022-08-01T07:18:37.388Z,99611.09
2022-08-01T07:23:33.043Z,99604.22
2022-08-01T07:28:26.151Z,99605.84
2022-08-01T07:33:17.819Z,99600.66
2022-08-01T07:38:12.648Z,99605.22
2022-08-01T07:43:04.745Z,99606.00
2022-08-01T07:47:56.390Z,99599.16
2022-08-01T07:52:48.140Z,99586.44
2022-08-01T07:57:39.856Z,99592.44
2022-08-01T08:02:31.566Z,99597.41
2022-08-01T08:07:23.326Z,99601.41
2022-08-01T08:12:14.952Z,99606.56
2022-08-01T08:17:07.266Z,99609.00
2022-08-01T08:21:58.929Z,99602.78
2022-08-01T08:26:57.330Z,99605.94
2022-08-01T08:31:51.871Z,99597.06
2022-08-01T08:36:47.877Z,99607.47
2022-08-01T08:41:39.812Z,99593.47
2022-08-01T08:46:35.833Z,99581.72
2022-08-01T08:51:28.611Z,99591.59
2022-08-01T08:56:24.224Z,99593.25
2022-08-01T09:01:23.008Z,99582.69
2022-08-01T09:06:15.161Z,99585.41
2022-08-01T09:11:07.405Z,99585.06
2022-08-01T09:16:02.267Z,99582.72
2022-08-01T09:21:09.438Z,99585.19
2022-08-01T09:26:01.117Z,99588.34
2022-08-01T09:30:52.763Z,99588.47
2022-08-01T09:35:46.302Z,99592.44
2022-08-01T09:40:58.258Z,99595.81
2022-08-01T09:45:53.468Z,99601.78
2022-08-01T09:50:50.654Z,99601.06
2022-08-01T09:55:43.558Z,99597.22
2022-08-01T10:00:45.395Z,99593.78
2022-08-01T10:05:37.579Z,99599.63
2022-08-01T10:10:31.655Z,99599.63
2022-08-01T10:15:36.977Z,99599.41
2022-08-01T10:20:32.346Z,99601.16
2022-08-01T10:25:41.938Z,99590.78
2022-08-01T10:30:35.623Z,99582.53
2022-08-01T10:35:47.349Z,99573.94
2022-08-01T10:40:40.632Z,99583.38
2022-08-01T10:45:32.649Z,99574.16
2022-08-01T10:50:43.134Z,99565.16
2022-08-01T10:55:50.408Z,99563.19
2022-08-01T11:00:42.274Z,99555.34
2022-08-01T11:05:36.118Z,99555.94
2022-08-01T11:10:33.968Z,99545.66
2022-08-01T11:15:29.114Z,99542.03
2022-08-01T11:20:25.428Z,99536.81
2022-08-01T11:25:19.004Z,99533.03
2022-08-01T11:30:13.100Z,99522.66
2022-08-01T11:35:05.587Z,99522.88
2022-08-01T11:40:16.897Z,99507.44
2022-08-01T11:45:16.725Z,99514.81
2022-08-01T11:50:29.930Z,99512.53
2022-08-01T11:55:21.870Z,99505.44
2022-08-01T12:00:20.478Z,99508.56
2022-08-01T12:05:15.623Z,99514.16
2022-08-01T12:10:18.723Z,99512.19
2022-08-01T12:15:11.488Z,99505.03
2022-08-01T12:20:06.162Z,99496.56
2022-08-01T12:25:07.443Z,99496.69
2022-08-01T12:30:00.490Z,99477.63
2022-08-01T12:34:56.116Z,99472.56
2022-08-01T12:39:51.741Z,99464.78
2022-08-01T12:44:46.726Z,99440.00
2022-08-01T12:49:39.090Z,99450.44
2022-08-01T12:54:31.074Z,99441.63
2022-08-01T12:59:25.861Z,99426.44
2022-08-01T13:04:17.625Z,99427.63
2022-08-01T13:09:12.491Z,99426.06
2022-08-01T13:14:04.267Z,99425.38
2022-08-01T13:18:57.789Z,99430.41
2022-08-01T13:24:10.763Z,99421.09
2022-08-01T13:29:07.254Z,99416.75
2022-08-01T13:34:00.249Z,99421.84
2022-08-01T13:39:10.980Z,99417.06
2022-08-01T13:44:02.737Z,99417.75
2022-08-01T13:48:54.403Z,99404.88
2022-08-01T13:53:46.340Z,99404.00
2022-08-01T13:58:38.050Z,99394.00
2022-08-01T14:03:33.906Z,99392.25
2022-08-01T14:08:25.674Z,99389.66
2022-08-01T14:13:17.338Z,99380.34
2022-08-01T14:18:10.065Z,99380.16
2022-08-01T14:23:02.843Z,99390.22
2022-08-01T14:27:54.496Z,99381.13
2022-08-01T14:32:46.187Z,99369.91
2022-08-01T14:37:38.644Z,99365.47
2022-08-01T14:42:30.535Z,99360.56
2022-08-01T14:47:22.687Z,99353.03
2022-08-01T14:52:14.387Z,99352.22
2022-08-01T14:57:06.115Z,99340.09
2022-08-01T15:01:57.770Z,99337.22
2022-08-01T15:06:49.394Z,99324.28
2022-08-01T15:11:41.030Z,99320.72
2022-08-01T15:16:32.678Z,99327.75
2022-08-01T15:21:40.826Z,99324.69
2022-08-01T15:26:33.957Z,99315.28
2022-08-01T15:31:25.614Z,99307.38
2022-08-01T15:36:19.458Z,99297.19
2022-08-01T15:41:17.621Z,99307.66
2022-08-01T15:46:09.742Z,99293.75
2022-08-01T15:51:01.395Z,99278.66
2022-08-01T15:55:53.011Z,99287.06
2022-08-01T16:00:44.679Z,99280.53
2022-08-01T16:05:42.846Z,99275.47
2022-08-01T16:10:35.633Z,99282.69
2022-08-01T16:15:31.341Z,99270.41
2022-08-01T16:20:28.873Z,99260.16
2022-08-01T16:25:20.542Z,99259.38
2022-08-01T16:30:12.881Z,99249.25
2022-08-01T16:35:04.921Z,99267.22
2022-08-01T16:39:56.609Z,99261.19
2022-08-01T16:44:48.205Z,99257.94
2022-08-01T16:49:41.639Z,99257.28
2022-08-01T16:54:33.372Z,99255.81
2022-08-01T16:59:25.055Z,99246.19
2022-08-01T17:04:16.706Z,99233.59
2022-08-01T17:09:09.403Z,99235.72
2022-08-01T17:14:01.078Z,99231.63
2022-08-01T17:18:52.760Z,99235.56
2022-08-01T17:23:44.431Z,99236.69
2022-08-01T17:28:36.080Z,99239.63
2022-08-01T17:33:45.583Z,99233.09
2022-08-01T17:38:37.906Z,99229.16
2022-08-01T17:43:29.595Z,99223.47
2022-08-01T17:48:21.258Z,99212.34
2022-08-01T17:53:14.246Z,99215.56
2022-08-01T17:58:06.617Z,99212.09
2022-08-01T18:02:58.240Z,99220.22
2022-08-01T18:08:00.628Z,99225.19
2022-08-01T18:12:53.997Z,99228.50
2022-08-01T18:17:46.010Z,99230.66
2022-08-01T18:22:37.801Z,99238.50
2022-08-01T18:28:16.033Z,99244.75
2022-08-01T18:32:42.511Z,99247.53
2022-08-01T18:37:34.318Z,99253.28
2022-08-01T18:42:32.588Z,99237.59
2022-08-01T18:47:24.284Z,99252.13
2022-08-01T18:52:15.878Z,99248.31
2022-08-01T18:57:08.363Z,99233.59
2022-08-01T19:02:00.507Z,99248.25
2022-08-01T19:06:53.531Z,99248.19
2022-08-01T19:11:45.378Z,99238.00
2022-08-01T19:16:37.288Z,99233.00
2022-08-01T19:21:28.987Z,99241.69
2022-08-01T19:26:23.433Z,99241.94
2022-08-01T19:31:15.470Z,99237.69
2022-08-01T19:36:16.244Z,99233.66
2022-08-01T19:41:07.993Z,99232.50
2022-08-01T19:46:07.600Z,99226.56
2022-08-01T19:51:15.169Z,99225.38
2022-08-01T19:56:08.385Z,99218.09
2022-08-01T20:01:00.247Z,99195.63
2022-08-01T20:05:52.021Z,99192.66
2022-08-01T20:10:46.511Z,99194.63
2022-08-01T20:15:39.050Z,99182.03
2022-08-01T20:20:32.212Z,99189.00
2022-08-01T20:25:33.594Z,99185.19
2022-08-01T20:30:32.940Z,99193.53
2022-08-01T20:35:52.061Z,99181.28
2022-08-01T20:40:37.000Z,99184.16
2022-08-01T20:45:28.683Z,99181.78
2022-08-01T20:50:52.849Z,99182.38
2022-08-01T20:55:54.523Z,99191.25
2022-08-01T21:00:50.612Z,99185.53
2022-08-01T21:05:55.941Z,99188.31
2022-08-01T21:10:57.094Z,99188.59
2022-08-01T21:16:04.167Z,99174.34
2022-08-01T21:21:15.713Z,99175.38
2022-08-01T21:26:12.376Z,99174.63
2022-08-01T21:31:04.354Z,99170.53
2022-08-01T21:36:06.110Z,99178.50
2022-08-01T21:41:03.454Z,99181.25
2022-08-01T21:45:58.338Z,99175.47
2022-08-01T21:50:58.417Z,99156.28
2022-08-01T21:56:14.621Z,99163.44
2022-08-01T22:01:13.597Z,99158.22
2022-08-01T22:06:06.494Z,99136.28
2022-08-01T22:11:03.173Z,99132.19
2022-08-01T22:15:58.325Z,99140.16
2022-08-01T22:20:53.111Z,99136.84
2022-08-01T22:25:45.833Z,99136.56
2022-08-01T22:30:42.205Z,99138.50
2022-08-01T22:35:35.832Z,99123.69
2022-08-01T22:40:32.996Z,99127.50
2022-08-01T22:45:51.586Z,99119.28
2022-08-01T22:50:46.565Z,99110.75
2022-08-01T22:55:58.666Z,99116.53
2022-08-01T23:00:55.840Z,99130.25
2022-08-01T23:06:03.947Z,99104.19
2022-08-01T23:10:55.764Z,99099.25
2022-08-01T23:15:52.570Z,99102.84
2022-08-01T23:20:45.194Z,99084.75
2022-08-01T23:25:37.607Z,99075.69
2022-08-01T23:30:31.545Z,99068.28
2022-08-01T23:35:24.384Z,99069.34
2022-08-01T23:40:16.627Z,99059.19
2022-08-01T23:45:08.645Z,99059.19
2022-08-01T23:50:00.424Z,99041.06
2022-08-01T23:54:52.057Z,99039.16
2022-08-01T23:59:53.038Z,99021.34
